Time;durP1;ratioP1;P1;durP2;ratioP2;P2;SDS_P1;SDS_P2;PMS_P1;PMS_P2;Temp;Humidity;BMP_temperature;BMP_pressure;BME280_temperature;BME280_humidity;BME280_pressure;Samples;Min_cycle;Max_cycle;Signal;HPM_P1;HPM_P2
2024/04/17 00:01:39;;;;;;;7.15;1.65;;;5.80;99.90;;;;;;6336669;22;19999;-92
2024/04/17 00:04:05;;;;;;;8.50;1.40;;;5.80;99.90;;;;;;6336346;22;19999;-92
2024/04/17 00:06:31;;;;;;;9.23;1.75;;;5.80;99.90;;;;;;6379016;22;20005;-92
2024/04/17 00:08:57;;;;;;;9.70;1.83;;;5.80;99.90;;;;;;6377649;22;20291;-92
2024/04/17 00:11:23;;;;;;;9.18;1.60;;;5.70;99.90;;;;;;6336653;22;19995;-91
2024/04/17 00:13:49;;;;;;;12.32;1.60;;;5.70;99.90;;;;;;6336565;22;20410;-92
2024/04/17 00:16:15;;;;;;;10.15;1.35;;;5.70;99.90;;;;;;6339298;22;20002;-90
2024/04/17 00:18:40;;;;;;;9.27;1.63;;;5.70;99.90;;;;;;6345183;22;19999;-91
2024/04/17 00:21:06;;;;;;;17.20;1.80;;;5.60;99.90;;;;;;6345597;22;20007;-91
2024/04/17 00:23:32;;;;;;;8.82;1.92;;;5.60;99.90;;;;;;6343731;22;19999;-91
2024/04/17 00:25:57;;;;;;;12.00;2.00;;;5.50;99.90;;;;;;6343554;22;20005;-92
2024/04/17 00:28:25;;;;;;;8.55;2.10;;;5.50;99.90;;;;;;6340156;22;19999;-91
2024/04/17 00:30:50;;;;;;;10.32;1.50;;;5.40;99.90;;;;;;6383336;22;20003;-92
2024/04/17 00:33:16;;;;;;;7.90;1.50;;;5.40;99.90;;;;;;6338350;22;20011;-92
2024/04/17 00:35:42;;;;;;;7.65;1.40;;;5.40;99.90;;;;;;6340013;22;20067;-92
2024/04/17 00:38:07;;;;;;;13.02;1.38;;;5.30;99.90;;;;;;6340619;22;20002;-90
2024/04/17 00:40:35;;;;;;;13.88;1.80;;;5.30;99.90;;;;;;6341540;22;20006;-91
2024/04/17 00:43:02;;;;;;;12.52;2.03;;;5.30;99.90;;;;;;6343435;22;20011;-91
2024/04/17 00:45:32;;;;;;;9.23;1.80;;;5.20;99.90;;;;;;6342429;22;19991;-92
2024/04/17 00:47:58;;;;;;;8.05;2.65;;;5.20;99.90;;;;;;6340526;22;20003;-92
2024/04/17 00:50:25;;;;;;;7.25;1.50;;;5.20;99.90;;;;;;6344095;22;20027;-92
2024/04/17 00:52:51;;;;;;;11.30;1.58;;;5.20;99.90;;;;;;6339226;22;19999;-91
2024/04/17 00:55:17;;;;;;;9.43;1.90;;;5.20;99.90;;;;;;6335002;22;20210;-93
2024/04/17 00:57:44;;;;;;;16.45;1.85;;;5.10;99.90;;;;;;6335401;22;20069;-92
2024/04/17 01:00:10;;;;;;;13.32;1.48;;;5.10;99.90;;;;;;6335869;22;20402;-93
2024/04/17 01:02:36;;;;;;;9.18;1.55;;;5.10;99.90;;;;;;6335899;22;20417;-92
2024/04/17 01:05:02;;;;;;;11.23;1.52;;;5.00;99.90;;;;;;6335022;22;19991;-92
2024/04/17 01:07:27;;;;;;;9.73;2.10;;;5.00;99.90;;;;;;6335296;22;19995;-93
2024/04/17 01:09:54;;;;;;;8.20;1.63;;;4.90;99.90;;;;;;6335768;22;19999;-91
2024/04/17 01:12:20;;;;;;;12.50;1.90;;;4.80;99.90;;;;;;6335659;22;20310;-92
2024/04/17 01:14:46;;;;;;;12.55;1.83;;;4.80;99.90;;;;;;6334697;22;19996;-91
2024/04/17 01:17:12;;;;;;;17.00;1.77;;;4.70;99.90;;;;;;6335581;22;20010;-92
2024/04/17 01:19:39;;;;;;;14.18;1.65;;;4.80;99.90;;;;;;6335595;22;19991;-92
2024/04/17 01:22:04;;;;;;;9.63;1.60;;;4.70;99.90;;;;;;6334877;22;19995;-91
2024/04/17 01:24:30;;;;;;;11.70;1.77;;;4.60;99.90;;;;;;6334939;22;20010;-91
2024/04/17 01:26:56;;;;;;;11.68;2.08;;;4.60;99.90;;;;;;6334632;22;20295;-92
2024/04/17 01:29:21;;;;;;;12.02;1.80;;;4.50;99.90;;;;;;6335255;22;20003;-93
2024/04/17 01:31:47;;;;;;;10.38;1.42;;;4.50;99.90;;;;;;6335991;22;20074;-91
2024/04/17 01:34:13;;;;;;;12.70;1.98;;;4.40;99.90;;;;;;6335446;22;19999;-91
2024/04/17 01:36:38;;;;;;;12.93;1.80;;;4.40;99.90;;;;;;6294144;22;19999;-93
2024/04/17 01:39:04;;;;;;;13.65;1.67;;;4.40;99.90;;;;;;6334248;22;19995;-93
2024/04/17 01:41:30;;;;;;;15.48;1.58;;;4.30;99.90;;;;;;6334254;22;20009;-92
2024/04/17 01:43:56;;;;;;;12.10;2.00;;;4.30;99.90;;;;;;6334408;22;20007;-92
2024/04/17 01:46:22;;;;;;;11.88;1.92;;;4.30;99.90;;;;;;6335003;22;19991;-92
2024/04/17 01:48:48;;;;;;;9.63;1.52;;;4.20;99.90;;;;;;6334074;22;20006;-92
2024/04/17 01:51:13;;;;;;;8.65;1.52;;;4.20;99.90;;;;;;6335052;22;20006;-92
2024/04/17 01:53:39;;;;;;;10.57;2.03;;;4.20;99.90;;;;;;6376942;22;20010;-92
2024/04/17 01:56:05;;;;;;;7.05;1.45;;;4.10;99.90;;;;;;6377287;22;19999;-92
2024/04/17 01:58:31;;;;;;;6.90;1.27;;;4.20;99.90;;;;;;6335229;22;20294;-92
2024/04/17 02:00:56;;;;;;;15.60;1.85;;;4.10;99.90;;;;;;6335122;22;19999;-93
2024/04/17 02:03:22;;;;;;;14.55;1.48;;;4.10;99.90;;;;;;6334614;22;20006;-93
2024/04/17 02:05:48;;;;;;;9.57;1.70;;;4.10;99.90;;;;;;6335431;22;20339;-92
2024/04/17 02:08:14;;;;;;;9.57;1.75;;;4.10;99.90;;;;;;6335151;22;19999;-93
2024/04/17 02:10:39;;;;;;;7.95;1.63;;;4.10;99.90;;;;;;6335162;22;20000;-92
2024/04/17 02:13:05;;;;;;;13.73;1.63;;;4.10;99.90;;;;;;6334190;22;19995;-92
2024/04/17 02:15:34;;;;;;;11.75;1.70;;;4.10;99.90;;;;;;6334003;22;20604;-93
2024/04/17 02:17:59;;;;;;;19.55;2.15;;;4.10;99.90;;;;;;6335067;22;19995;-92
2024/04/17 02:20:25;;;;;;;8.65;2.03;;;4.00;99.90;;;;;;6334925;22;20044;-93
2024/04/17 02:22:51;;;;;;;13.15;1.63;;;4.00;99.90;;;;;;6335140;22;20005;-91
2024/04/17 02:25:16;;;;;;;8.90;1.70;;;4.00;99.90;;;;;;6334772;22;20070;-93
2024/04/17 02:27:42;;;;;;;12.20;1.50;;;4.00;99.90;;;;;;6335410;22;20049;-92
2024/04/17 02:30:08;;;;;;;11.07;2.15;;;3.90;99.90;;;;;;6334796;22;20007;-91
2024/04/17 02:32:34;;;;;;;8.07;1.38;;;3.90;99.90;;;;;;6334303;22;20070;-90
2024/04/17 02:34:59;;;;;;;14.10;1.98;;;3.90;99.90;;;;;;6334621;22;20004;-93
2024/04/17 02:37:25;;;;;;;12.30;2.83;;;3.80;99.90;;;;;;6334575;22;20003;-91
2024/04/17 02:39:50;;;;;;;8.00;1.70;;;3.80;99.90;;;;;;6333926;22;20074;-94
2024/04/17 02:42:16;;;;;;;8.43;1.60;;;3.80;99.90;;;;;;6333704;22;20070;-93
2024/04/17 02:44:42;;;;;;;12.48;1.88;;;3.70;99.90;;;;;;6334736;22;20350;-91
2024/04/17 02:47:07;;;;;;;19.30;2.15;;;3.70;99.90;;;;;;6377025;22;20378;-94
2024/04/17 02:49:33;;;;;;;14.45;2.35;;;3.70;99.90;;;;;;6333292;22;19995;-90
2024/04/17 02:51:58;;;;;;;11.05;1.73;;;3.70;99.90;;;;;;6334449;22;20370;-91
2024/04/17 02:54:24;;;;;;;18.13;2.47;;;3.70;99.90;;;;;;6334916;22;19999;-90
2024/04/17 02:56:50;;;;;;;12.63;1.38;;;3.70;99.90;;;;;;6334912;22;20003;-91
2024/04/17 02:59:17;;;;;;;9.23;1.60;;;3.60;99.90;;;;;;6334696;22;20473;-92
2024/04/17 03:01:42;;;;;;;12.15;1.65;;;3.60;99.90;;;;;;6335245;22;19999;-91
2024/04/17 03:04:08;;;;;;;16.60;2.33;;;3.60;99.90;;;;;;6335063;22;20065;-91
2024/04/17 03:06:35;;;;;;;6.80;1.58;;;3.50;99.90;;;;;;6339343;22;20075;-92
2024/04/17 03:09:00;;;;;;;11.85;1.58;;;3.50;99.90;;;;;;6347667;22;19999;-92
2024/04/17 03:11:26;;;;;;;13.57;1.75;;;3.50;99.90;;;;;;6345713;22;19999;-93
2024/04/17 03:13:52;;;;;;;11.88;1.60;;;3.50;99.90;;;;;;6344169;22;20001;-91
2024/04/17 03:16:17;;;;;;;13.90;2.60;;;3.50;99.90;;;;;;6337546;22;19995;-94
2024/04/17 03:18:43;;;;;;;12.00;1.40;;;3.50;99.90;;;;;;6338125;22;20318;-93
2024/04/17 03:21:09;;;;;;;10.80;1.80;;;3.40;99.90;;;;;;6336901;22;19995;-93
2024/04/17 03:23:35;;;;;;;8.13;1.58;;;3.40;99.90;;;;;;6336957;22;19997;-91
2024/04/17 03:26:01;;;;;;;13.38;2.10;;;3.30;99.90;;;;;;6336553;22;19995;-92
2024/04/17 03:28:27;;;;;;;12.52;1.95;;;3.40;99.90;;;;;;6335896;22;19999;-91
2024/04/17 03:30:53;;;;;;;8.18;1.75;;;3.40;99.90;;;;;;6335521;22;20398;-92
2024/04/17 03:33:19;;;;;;;13.35;2.10;;;3.40;99.90;;;;;;6335451;22;20006;-92
2024/04/17 03:35:58;;;;;;;14.35;2.00;;;3.40;99.90;;;;;;6333974;22;20010;-93
2024/04/17 03:38:24;;;;;;;12.63;1.60;;;3.40;99.90;;;;;;6334693;22;19999;-93
2024/04/17 03:40:50;;;;;;;8.52;1.75;;;3.50;99.90;;;;;;6335075;22;19995;-91
2024/04/17 03:43:16;;;;;;;10.75;1.55;;;3.50;99.90;;;;;;6335436;22;19999;-91
2024/04/17 03:45:42;;;;;;;7.50;1.52;;;3.50;99.90;;;;;;6335392;22;20561;-91
2024/04/17 03:48:08;;;;;;;10.38;1.67;;;3.50;99.90;;;;;;6335286;22;20000;-91
2024/04/17 03:50:33;;;;;;;17.98;1.67;;;3.50;99.90;;;;;;6334284;22;20423;-92
2024/04/17 03:52:59;;;;;;;9.98;1.30;;;3.50;99.90;;;;;;6334838;22;19999;-91
2024/04/17 03:55:25;;;;;;;8.65;1.83;;;3.50;99.90;;;;;;6333782;22;19999;-91
2024/04/17 03:57:50;;;;;;;6.68;1.40;;;3.50;99.90;;;;;;6333786;22;20002;-91
2024/04/17 04:00:16;;;;;;;13.15;1.50;;;3.50;99.90;;;;;;6334346;22;20341;-92
2024/04/17 04:02:43;;;;;;;3.80;1.13;;;3.50;99.90;;;;;;6334261;22;19995;-93
2024/04/17 04:05:09;;;;;;;11.32;1.70;;;3.50;99.90;;;;;;6333764;22;20419;-93
2024/04/17 04:07:35;;;;;;;15.52;1.63;;;3.40;99.90;;;;;;6377400;22;20067;-92
2024/04/17 04:10:01;;;;;;;10.82;1.30;;;3.30;99.90;;;;;;6377460;22;20002;-91
2024/04/17 04:12:26;;;;;;;9.77;1.40;;;3.30;99.90;;;;;;6335494;22;20006;-91
2024/04/17 04:14:52;;;;;;;14.70;1.70;;;3.30;99.90;;;;;;6335569;22;20378;-91
2024/04/17 04:17:18;;;;;;;14.50;2.33;;;3.20;99.90;;;;;;6336108;22;20677;-91
2024/04/17 04:19:43;;;;;;;10.15;1.52;;;3.20;99.90;;;;;;6335415;22;19996;-91
2024/04/17 04:22:09;;;;;;;12.88;2.35;;;3.10;99.90;;;;;;6336319;22;19995;-91
2024/04/17 04:24:35;;;;;;;9.75;1.40;;;3.20;99.90;;;;;;6336278;22;20002;-91
2024/04/17 04:27:01;;;;;;;13.05;1.48;;;3.10;99.90;;;;;;6335341;22;20062;-91
2024/04/17 04:29:26;;;;;;;14.75;1.70;;;3.10;99.90;;;;;;6334993;22;20003;-91
2024/04/17 04:31:52;;;;;;;11.73;1.40;;;3.10;99.90;;;;;;6334991;22;20007;-91
2024/04/17 04:34:18;;;;;;;17.33;1.58;;;3.10;99.90;;;;;;6336413;22;19991;-91
2024/04/17 04:36:43;;;;;;;9.18;1.58;;;3.10;99.90;;;;;;6335352;22;19995;-90
2024/04/17 04:39:09;;;;;;;10.60;1.88;;;3.00;99.90;;;;;;6335166;22;19995;-91
2024/04/17 04:41:35;;;;;;;16.65;2.95;;;3.00;99.90;;;;;;6334820;22;20014;-90
2024/04/17 04:44:00;;;;;;;11.40;2.63;;;3.00;99.90;;;;;;6335225;22;20043;-91
2024/04/17 04:46:26;;;;;;;7.53;1.50;;;3.00;99.90;;;;;;6334633;22;20074;-92
2024/04/17 04:48:51;;;;;;;6.85;1.20;;;2.90;99.90;;;;;;6336618;22;19995;-92
2024/04/17 04:51:17;;;;;;;10.27;1.70;;;2.90;99.90;;;;;;6334923;22;20010;-91
2024/04/17 04:53:43;;;;;;;7.95;1.33;;;2.90;99.90;;;;;;6336674;22;20026;-92
2024/04/17 04:56:08;;;;;;;16.08;1.60;;;2.90;99.90;;;;;;6335645;22;19999;-92
2024/04/17 04:58:34;;;;;;;7.80;1.52;;;2.90;99.90;;;;;;6336014;22;20006;-91
2024/04/17 05:01:00;;;;;;;6.68;1.05;;;2.90;99.90;;;;;;6338183;22;20327;-92
2024/04/17 05:03:26;;;;;;;6.63;1.48;;;2.90;99.90;;;;;;6339290;22;19995;-91
2024/04/17 05:05:51;;;;;;;5.78;1.30;;;2.90;99.90;;;;;;6339221;22;20007;-91
2024/04/17 05:08:17;;;;;;;13.25;1.38;;;2.90;99.90;;;;;;6339074;22;20003;-91
2024/04/17 05:10:42;;;;;;;7.78;1.15;;;2.90;99.90;;;;;;6338747;22;20003;-91
2024/04/17 05:13:08;;;;;;;9.38;1.05;;;2.90;99.90;;;;;;6338601;22;19999;-91
2024/04/17 05:15:34;;;;;;;7.22;1.10;;;2.90;99.90;;;;;;6335520;22;20003;-90
2024/04/17 05:17:59;;;;;;;9.23;0.98;;;2.90;99.90;;;;;;6336162;22;19999;-92
2024/04/17 05:20:26;;;;;;;5.57;0.98;;;3.00;99.90;;;;;;6334592;22;20420;-91
2024/04/17 05:22:52;;;;;;;3.35;1.10;;;2.90;99.90;;;;;;6376350;22;20003;-90
2024/04/17 05:25:20;;;;;;;11.45;1.10;;;2.90;99.90;;;;;;6336307;22;20429;-90
2024/04/17 05:27:46;;;;;;;7.85;1.48;;;2.90;99.90;;;;;;6334909;22;19992;-91
2024/04/17 05:30:12;;;;;;;3.42;1.00;;;2.90;99.90;;;;;;6334609;22;20005;-92
2024/04/17 05:32:38;;;;;;;4.68;0.90;;;2.90;99.90;;;;;;6335024;22;20006;-92
2024/04/17 05:35:04;;;;;;;6.50;1.50;;;3.00;99.90;;;;;;6334806;22;20323;-91
2024/04/17 05:37:31;;;;;;;9.63;1.63;;;3.00;99.90;;;;;;6335624;22;20010;-92
2024/04/17 05:39:56;;;;;;;8.30;1.27;;;3.00;99.90;;;;;;6335024;22;19995;-91
2024/04/17 05:42:23;;;;;;;4.13;1.05;;;3.00;99.90;;;;;;6335280;22;20083;-92
2024/04/17 05:44:49;;;;;;;7.13;1.15;;;3.00;99.90;;;;;;6335421;22;20006;-91
2024/04/17 05:47:14;;;;;;;5.47;1.10;;;3.10;99.90;;;;;;6377695;22;19992;-92
2024/04/17 05:49:40;;;;;;;16.05;1.42;;;3.10;99.90;;;;;;6334897;22;20007;-91
2024/04/17 05:52:09;;;;;;;5.70;0.93;;;3.00;99.90;;;;;;6335490;22;19995;-92
2024/04/17 05:54:37;;;;;;;7.38;0.95;;;3.00;99.90;;;;;;6336296;22;20010;-91
2024/04/17 05:57:03;;;;;;;9.25;1.23;;;3.00;99.90;;;;;;6338748;22;19995;-92
2024/04/17 05:59:29;;;;;;;9.73;1.40;;;3.00;99.90;;;;;;6344001;22;20006;-92
2024/04/17 06:01:57;;;;;;;8.07;1.00;;;3.10;99.90;;;;;;6346331;22;20118;-92
2024/04/17 06:04:23;;;;;;;3.97;1.15;;;3.10;99.90;;;;;;6345037;22;20008;-90
2024/04/17 06:06:49;;;;;;;6.20;1.10;;;3.10;99.90;;;;;;6340954;22;20003;-92
2024/04/17 06:09:15;;;;;;;7.90;1.77;;;3.10;99.90;;;;;;6341251;22;20010;-92
2024/04/17 06:11:40;;;;;;;9.00;1.35;;;3.10;99.90;;;;;;6337214;22;20426;-92
2024/04/17 06:14:06;;;;;;;11.55;1.48;;;3.10;99.90;;;;;;6335795;22;19999;-92
2024/04/17 06:16:32;;;;;;;9.75;1.25;;;3.20;99.90;;;;;;6335867;22;20070;-92
2024/04/17 06:18:57;;;;;;;5.40;1.13;;;3.20;99.90;;;;;;6334039;22;19995;-92
2024/04/17 06:21:23;;;;;;;10.60;1.08;;;3.20;99.90;;;;;;6333148;22;19999;-91
2024/04/17 06:23:49;;;;;;;9.88;1.20;;;3.20;99.90;;;;;;6333743;22;20485;-91
2024/04/17 06:26:15;;;;;;;11.98;1.15;;;3.20;99.90;;;;;;6333464;22;20015;-91
2024/04/17 06:28:41;;;;;;;4.70;1.02;;;3.20;99.90;;;;;;6332507;22;20101;-91
2024/04/17 06:31:06;;;;;;;8.60;1.17;;;3.20;99.90;;;;;;6335580;22;19999;-92
2024/04/17 06:33:32;;;;;;;3.35;1.27;;;3.20;99.90;;;;;;6333515;22;20299;-91
2024/04/17 06:35:58;;;;;;;6.60;1.20;;;3.30;99.90;;;;;;6330748;22;20426;-90
2024/04/17 06:38:23;;;;;;;10.35;1.30;;;3.30;99.90;;;;;;6331621;22;19995;-91
2024/04/17 06:40:49;;;;;;;2.85;1.05;;;3.30;99.90;;;;;;6331712;22;19999;-91
2024/04/17 06:43:15;;;;;;;8.40;2.65;;;3.40;99.90;;;;;;6333722;22;20075;-92
2024/04/17 06:45:41;;;;;;;12.07;1.95;;;3.40;99.90;;;;;;6333484;22;20003;-92
2024/04/17 06:48:08;;;;;;;6.38;0.68;;;3.50;99.90;;;;;;6334200;22;20003;-91
2024/04/17 06:50:35;;;;;;;3.67;1.48;;;3.50;99.90;;;;;;6335094;22;20014;-92
2024/04/17 06:53:01;;;;;;;6.45;1.17;;;3.60;99.90;;;;;;6334082;22;19995;-92
2024/04/17 06:55:27;;;;;;;3.95;1.00;;;3.60;99.90;;;;;;6333834;22;19999;-91
2024/04/17 06:57:52;;;;;;;4.97;1.10;;;3.60;99.90;;;;;;6332235;22;20433;-91
2024/04/17 07:00:20;;;;;;;5.22;0.98;;;3.70;99.90;;;;;;6332680;22;20003;-91
2024/04/17 07:02:46;;;;;;;6.03;1.00;;;3.70;99.90;;;;;;6380087;22;20003;-92
2024/04/17 07:05:12;;;;;;;5.72;1.30;;;3.70;99.90;;;;;;6333331;22;20003;-92
2024/04/17 07:07:38;;;;;;;1.77;1.05;;;3.80;99.90;;;;;;6332894;22;20007;-91
2024/04/17 07:10:04;;;;;;;3.35;1.08;;;3.80;99.90;;;;;;6332534;22;20428;-92
2024/04/17 07:12:30;;;;;;;7.38;1.10;;;3.80;99.90;;;;;;6332962;22;20486;-92
2024/04/17 07:14:58;;;;;;;5.68;1.40;;;3.90;99.90;;;;;;6332508;22;20013;-91
2024/04/17 07:17:24;;;;;;;5.07;1.55;;;4.00;99.90;;;;;;6333517;22;20003;-91
2024/04/17 07:19:50;;;;;;;6.97;1.25;;;4.10;99.90;;;;;;6332893;22;19999;-91
2024/04/17 07:22:16;;;;;;;6.82;1.05;;;4.10;99.90;;;;;;6332480;22;20507;-91
2024/04/17 07:24:41;;;;;;;6.18;1.15;;;4.20;99.90;;;;;;6329420;22;20003;-91
2024/04/17 07:27:07;;;;;;;4.57;0.82;;;4.20;99.90;;;;;;6338224;22;20018;-91
2024/04/17 07:29:34;;;;;;;5.57;1.00;;;4.30;99.90;;;;;;6334650;22;20018;-90
2024/04/17 07:32:00;;;;;;;5.78;0.85;;;4.40;99.90;;;;;;6333574;22;20003;-92
2024/04/17 07:34:25;;;;;;;2.65;0.77;;;4.40;99.90;;;;;;6334542;22;20039;-92
2024/04/17 07:36:51;;;;;;;3.60;0.60;;;4.50;99.90;;;;;;6332584;22;20406;-89
2024/04/17 07:39:16;;;;;;;3.53;0.90;;;4.50;99.90;;;;;;6330631;22;20011;-91
2024/04/17 07:41:42;;;;;;;4.53;0.88;;;4.60;99.90;;;;;;6332593;22;19995;-91
2024/04/17 07:44:09;;;;;;;5.85;0.80;;;4.60;99.90;;;;;;6333384;22;20023;-90
2024/04/17 07:46:34;;;;;;;4.07;0.77;;;4.60;99.90;;;;;;6335399;22;19991;-92
2024/04/17 07:49:00;;;;;;;3.10;0.70;;;4.60;99.90;;;;;;6326046;22;20122;-91
2024/04/17 07:51:26;;;;;;;4.70;1.00;;;4.60;99.90;;;;;;6330459;22;20047;-92
2024/04/17 07:53:52;;;;;;;6.15;0.60;;;4.60;99.90;;;;;;6331126;22;20314;-91
2024/04/17 07:56:17;;;;;;;2.00;0.50;;;4.60;99.90;;;;;;6331293;22;20727;-93
2024/04/17 07:58:43;;;;;;;1.50;0.60;;;4.60;99.90;;;;;;6331157;22;20010;-92
2024/04/17 08:01:10;;;;;;;5.07;1.10;;;4.70;99.90;;;;;;6330797;22;19999;-93
2024/04/17 08:03:36;;;;;;;7.43;1.25;;;4.70;99.90;;;;;;6331726;22;19995;-92
2024/04/17 08:06:02;;;;;;;2.67;0.73;;;4.80;99.90;;;;;;6333576;22;20022;-93
2024/04/17 08:08:28;;;;;;;5.93;1.20;;;4.80;99.90;;;;;;6333231;22;20332;-93
2024/04/17 08:10:54;;;;;;;1.50;0.50;;;4.90;99.90;;;;;;6333619;22;20050;-91
2024/04/17 08:13:19;;;;;;;3.50;0.73;;;4.90;99.90;;;;;;6335778;22;20003;-92
2024/04/17 08:15:49;;;;;;;3.60;0.77;;;5.00;99.90;;;;;;6334779;22;20003;-91
2024/04/17 08:18:15;;;;;;;1.17;0.40;;;5.10;99.90;;;;;;6333272;22;20011;-92
2024/04/17 08:20:41;;;;;;;3.28;0.50;;;5.20;99.90;;;;;;6333454;22;20079;-92
2024/04/17 08:23:07;;;;;;;2.50;0.50;;;5.40;99.90;;;;;;6333723;22;20015;-92
2024/04/17 08:25:33;;;;;;;1.85;0.40;;;5.50;99.90;;;;;;6375822;22;20011;-93
2024/04/17 08:27:59;;;;;;;1.27;0.55;;;5.60;99.90;;;;;;6336426;22;20009;-92
2024/04/17 08:30:25;;;;;;;4.78;0.55;;;5.70;99.90;;;;;;6334754;22;20007;-91
2024/04/17 08:32:50;;;;;;;2.47;0.70;;;5.90;99.90;;;;;;6334836;22;20000;-92
2024/04/17 08:35:16;;;;;;;1.90;0.60;;;6.00;99.90;;;;;;6333486;22;20099;-93
2024/04/17 08:37:43;;;;;;;3.45;0.93;;;6.10;99.90;;;;;;6333250;22;20302;-93
2024/04/17 08:40:12;;;;;;;3.22;0.55;;;6.20;99.90;;;;;;6380564;22;20010;-91
2024/04/17 08:42:41;;;;;;;4.78;0.70;;;6.40;99.90;;;;;;6341044;22;20490;-91
2024/04/17 08:45:11;;;;;;;6.47;0.75;;;6.50;99.90;;;;;;6340909;22;20003;-94
2024/04/17 08:47:41;;;;;;;1.88;0.80;;;6.70;99.90;;;;;;6340597;22;20003;-93
2024/04/17 08:50:08;;;;;;;6.75;0.85;;;6.80;99.90;;;;;;6379531;22;20003;-93
2024/04/17 08:52:36;;;;;;;1.33;0.45;;;7.00;99.90;;;;;;6336807;22;20017;-93
2024/04/17 08:55:04;;;;;;;0.90;0.30;;;7.10;99.90;;;;;;6335184;22;20528;-93
2024/04/17 08:57:31;;;;;;;2.10;0.43;;;7.30;99.90;;;;;;6334745;22;19999;-92
2024/04/17 08:59:57;;;;;;;3.88;0.63;;;7.40;99.90;;;;;;6334924;22;20359;-92
2024/04/17 09:02:26;;;;;;;0.80;0.30;;;7.50;99.90;;;;;;6335668;22;20043;-92
2024/04/17 09:04:54;;;;;;;0.90;0.50;;;7.60;99.90;;;;;;6336274;22;20007;-93
2024/04/17 09:07:21;;;;;;;2.30;0.65;;;7.70;99.90;;;;;;6334891;22;20009;-94
2024/04/17 09:09:47;;;;;;;1.25;0.45;;;7.80;99.90;;;;;;6376236;22;19999;-93
2024/04/17 09:12:14;;;;;;;0.52;0.25;;;7.90;99.90;;;;;;6334895;22;20002;-93
2024/04/17 09:14:40;;;;;;;6.57;1.05;;;8.00;99.90;;;;;;6335218;22;20007;-92
2024/04/17 09:17:07;;;;;;;1.42;0.38;;;8.20;99.90;;;;;;6333832;22;19995;-93
2024/04/17 09:19:33;;;;;;;1.25;0.47;;;8.30;99.90;;;;;;6333663;22;20426;-93
2024/04/17 09:21:59;;;;;;;3.33;0.60;;;8.40;99.90;;;;;;6334879;22;20006;-94
2024/04/17 09:24:25;;;;;;;2.55;0.60;;;8.60;99.90;;;;;;6334927;22;19999;-93
2024/04/17 09:26:51;;;;;;;1.65;0.85;;;8.70;99.90;;;;;;6334483;22;19992;-94
2024/04/17 09:29:17;;;;;;;4.60;0.70;;;8.90;99.60;;;;;;6333527;22;20305;-94
2024/04/17 09:31:43;;;;;;;1.08;0.40;;;9.10;98.80;;;;;;6334104;22;19996;-93
2024/04/17 09:34:16;;;;;;;8.48;0.88;;;9.20;98.10;;;;;;6333527;22;20408;-93
2024/04/17 09:36:48;;;;;;;2.65;0.85;;;9.40;97.00;;;;;;6332848;22;20018;-94
2024/04/17 09:39:15;;;;;;;4.35;0.60;;;9.40;95.40;;;;;;6332842;22;19999;-92
2024/04/17 09:41:41;;;;;;;2.47;0.57;;;9.50;94.30;;;;;;6333725;22;20067;-93
2024/04/17 09:44:13;;;;;;;5.22;1.65;;;9.50;93.60;;;;;;6332293;22;20442;-92
2024/04/17 09:46:40;;;;;;;3.75;1.20;;;9.50;93.50;;;;;;6333875;22;20061;-92
2024/04/17 09:49:17;;;;;;;3.53;0.65;;;9.60;93.30;;;;;;6333132;22;20074;-93
2024/04/17 09:51:45;;;;;;;5.10;0.82;;;9.80;92.80;;;;;;6376939;22;20016;-91
2024/04/17 09:54:13;;;;;;;2.38;0.50;;;9.90;92.30;;;;;;6336757;22;19999;-90
2024/04/17 09:56:41;;;;;;;1.52;0.50;;;10.10;92.00;;;;;;6336154;22;20014;-91
2024/04/17 09:59:09;;;;;;;2.78;0.85;;;10.20;91.40;;;;;;6335951;22;20003;-92
2024/04/17 10:01:40;;;;;;;2.45;0.55;;;10.30;90.50;;;;;;6335816;22;20015;-91
2024/04/17 10:04:08;;;;;;;3.25;0.60;;;10.40;90.10;;;;;;6334063;22;20011;-92
2024/04/17 10:06:37;;;;;;;1.25;0.30;;;10.50;89.80;;;;;;6333739;22;20007;-92
2024/04/17 10:09:04;;;;;;;2.05;0.68;;;10.60;88.40;;;;;;6332006;22;20015;-93
2024/04/17 10:11:32;;;;;;;4.43;0.90;;;10.70;87.60;;;;;;6375046;22;20014;-95
2024/04/17 10:13:58;;;;;;;6.70;0.80;;;10.90;87.80;;;;;;6376232;22;19999;-93
2024/04/17 10:16:24;;;;;;;3.60;1.05;;;11.00;87.10;;;;;;6337790;22;20410;-94
2024/04/17 10:18:51;;;;;;;5.55;0.90;;;11.10;85.50;;;;;;6340320;22;20003;-94
2024/04/17 10:21:21;;;;;;;5.45;0.98;;;11.20;85.00;;;;;;6342402;22;20003;-94
2024/04/17 10:24:01;;;;;;;3.25;0.50;;;11.30;84.20;;;;;;6342820;22;20003;-93
2024/04/17 10:26:40;;;;;;;1.98;0.80;;;11.50;84.30;;;;;;6337483;22;19999;-93
2024/04/17 10:29:17;;;;;;;2.70;1.17;;;11.60;84.00;;;;;;6335260;22;20015;-93
2024/04/17 10:31:56;;;;;;;4.95;0.75;;;11.50;83.10;;;;;;6336395;22;20014;-94
2024/04/17 10:34:23;;;;;;;4.00;1.20;;;11.50;83.10;;;;;;6332556;22;20246;-95
2024/04/17 10:37:02;;;;;;;3.92;0.60;;;11.50;82.70;;;;;;6332503;22;20118;-95
2024/04/17 10:39:28;;;;;;;1.90;0.60;;;11.40;82.20;;;;;;6333706;22;20055;-94
2024/04/17 10:41:54;;;;;;;3.72;0.47;;;11.40;81.90;;;;;;6334590;22;20000;-94
2024/04/17 10:44:20;;;;;;;4.85;0.75;;;11.40;81.60;;;;;;6336243;22;20014;-95
2024/04/17 10:46:47;;;;;;;3.38;0.52;;;11.40;81.10;;;;;;6337206;22;20011;-93
2024/04/17 10:49:21;;;;;;;1.45;0.73;;;11.50;81.20;;;;;;6334704;22;20084;-94
2024/04/17 10:51:48;;;;;;;1.33;0.50;;;11.70;81.40;;;;;;6333783;22;19995;-93
2024/04/17 10:54:17;;;;;;;5.28;0.80;;;11.80;80.90;;;;;;6332795;22;20023;-94
2024/04/17 10:56:43;;;;;;;2.75;0.80;;;11.90;79.80;;;;;;6332182;22;19999;-93
2024/04/17 10:59:08;;;;;;;3.28;0.70;;;12.00;78.80;;;;;;6333313;22;20003;-94
2024/04/17 11:01:34;;;;;;;1.65;0.32;;;12.10;77.80;;;;;;6333918;22;20014;-93
2024/04/17 11:04:00;;;;;;;6.10;0.57;;;12.00;76.70;;;;;;6333033;22;20003;-93
2024/04/17 11:06:26;;;;;;;1.55;0.60;;;12.00;77.00;;;;;;6333668;22;20058;-94
2024/04/17 11:08:55;;;;;;;3.10;0.60;;;12.00;77.30;;;;;;6333799;22;20003;-94
2024/04/17 11:11:21;;;;;;;3.78;0.68;;;12.20;77.40;;;;;;6333953;22;20320;-94
2024/04/17 11:13:47;;;;;;;3.78;0.73;;;12.50;76.50;;;;;;6331473;22;19999;-94
2024/04/17 11:16:13;;;;;;;1.98;0.63;;;12.70;75.70;;;;;;6332801;22;20010;-94
2024/04/17 11:18:41;;;;;;;3.33;0.70;;;12.90;74.80;;;;;;6334831;22;20048;-94
2024/04/17 11:21:09;;;;;;;3.10;0.40;;;13.00;74.20;;;;;;6346973;22;20003;-94
2024/04/17 11:23:43;;;;;;;3.30;0.70;;;12.90;73.20;;;;;;6347502;22;20024;-94
2024/04/17 11:26:10;;;;;;;3.88;0.80;;;12.90;74.00;;;;;;6347620;22;20421;-94
2024/04/17 11:28:43;;;;;;;2.70;0.70;;;12.90;73.40;;;;;;6346320;22;20014;-94
2024/04/17 11:31:11;;;;;;;2.15;0.52;;;12.80;73.30;;;;;;6347539;22;20007;-95
2024/04/17 11:33:37;;;;;;;5.10;0.73;;;13.00;73.80;;;;;;6346277;22;20078;-95
2024/04/17 11:36:12;;;;;;;2.08;0.55;;;13.20;74.30;;;;;;6302468;22;20014;-94
2024/04/17 11:38:42;;;;;;;3.85;0.75;;;13.40;72.80;;;;;;6340982;22;19999;-95
2024/04/17 11:41:08;;;;;;;3.17;0.53;;;13.60;71.90;;;;;;6339998;22;20010;-94
2024/04/17 11:43:34;;;;;;;3.53;0.60;;;13.80;71.60;;;;;;6339647;22;20000;-95
2024/04/17 11:46:00;;;;;;;2.65;0.70;;;13.90;70.20;;;;;;6340097;22;20075;-94
2024/04/17 11:48:26;;;;;;;3.03;0.77;;;14.00;70.40;;;;;;6335902;22;20011;-94
2024/04/17 11:50:51;;;;;;;3.13;0.90;;;13.90;69.60;;;;;;6337298;22;20003;-94
2024/04/17 11:53:17;;;;;;;3.70;0.98;;;13.80;69.20;;;;;;6337227;22;20011;-93
2024/04/17 11:55:43;;;;;;;10.25;0.90;;;13.80;69.90;;;;;;6338074;22;20015;-94
2024/04/17 11:58:09;;;;;;;4.03;0.88;;;13.60;69.60;;;;;;6338351;22;20003;-93
2024/04/17 12:00:34;;;;;;;2.92;0.88;;;13.30;70.30;;;;;;6339057;22;19999;-94
2024/04/17 12:03:00;;;;;;;3.20;0.75;;;13.30;70.90;;;;;;6337253;22;20009;-94
2024/04/17 12:05:26;;;;;;;3.97;0.80;;;13.40;71.10;;;;;;6337542;22;19999;-94
2024/04/17 12:07:52;;;;;;;2.50;0.50;;;13.30;70.60;;;;;;6338948;22;19988;-95
2024/04/17 12:10:19;;;;;;;1.65;0.60;;;13.30;70.60;;;;;;6337614;22;20079;-96
2024/04/17 12:12:48;;;;;;;1.33;0.55;;;13.10;70.00;;;;;;6339663;22;20011;-96
2024/04/17 12:15:14;;;;;;;5.05;0.50;;;12.80;69.40;;;;;;6342560;22;20052;-96
2024/04/17 12:17:41;;;;;;;2.75;0.50;;;12.60;69.90;;;;;;6340692;22;20014;-95
2024/04/17 12:20:10;;;;;;;3.10;0.60;;;12.60;70.30;;;;;;6346373;22;20011;-94
2024/04/17 12:22:37;;;;;;;2.60;0.60;;;12.60;70.40;;;;;;6301705;22;20003;-95
2024/04/17 12:27:56;;;;;;;7.07;0.63;;;12.80;71.20;;;;;;6382765;22;20010;-92
2024/04/17 12:30:21;;;;;;;5.57;0.90;;;13.10;71.30;;;;;;6337105;22;19999;-93
2024/04/17 12:32:47;;;;;;;1.88;0.50;;;13.10;70.50;;;;;;6347595;22;20000;-91
2024/04/17 12:35:13;;;;;;;3.33;0.60;;;13.00;70.50;;;;;;6349027;22;19999;-94
2024/04/17 12:37:39;;;;;;;3.03;0.73;;;12.90;70.40;;;;;;6345002;22;20051;-93
2024/04/17 12:40:06;;;;;;;1.90;0.52;;;12.80;70.60;;;;;;6389382;22;20433;-92
2024/04/17 12:42:32;;;;;;;3.88;0.50;;;12.70;70.70;;;;;;6350113;22;20010;-93
2024/04/17 12:44:58;;;;;;;4.85;0.55;;;12.60;70.80;;;;;;6336497;22;20003;-93
2024/04/17 12:47:23;;;;;;;1.67;0.45;;;12.50;70.50;;;;;;6336159;22;19999;-94
2024/04/17 12:49:49;;;;;;;3.22;0.70;;;12.30;70.40;;;;;;6333676;22;20403;-93
2024/04/17 12:52:15;;;;;;;3.40;0.60;;;12.10;70.80;;;;;;6336021;22;20006;-94